< < Back
Terminal Aerodrome Forecast


Current Version              Previous Versions:   1  2  3  4  5  6  7  8  9  

Terminal Aerodrome Forecast

517
FTUS42 KFFC 061534 AAB
TAFATL
TAF AMD
KATL 061534Z 0616/0718 33015G25KT P6SM FEW040
     FM061700 34020G30KT P6SM FEW050
     FM070000 32012KT P6SM SKC
     FM070600 32009KT P6SM SKC
     FM071500 30011KT P6SM FEW250=



Latest METAR

239
SAUS70 KWBC 061800 RRH
MTRATL
METAR KATL 061752Z 35015G22KT 10SM FEW060 BKN210 20/05 A2992 RMK AO2 PK
WND 32027/1715 SLP129 FU BKN210 T02000050 10200 20100
58009


USA.gov is the U.S. government's official web portal to all federal, state and local government web resources and services.